Time;durP1;ratioP1;P1;durP2;ratioP2;P2;SDS_P1;SDS_P2;PMS_P1;PMS_P2;Temp;Humidity;BMP_temperature;BMP_pressure;BME280_temperature;BME280_humidity;BME280_pressure;Samples;Min_cycle;Max_cycle;Signal;HPM_P1;HPM_P2
2023/07/01 00:00:16;;;;;;;6.90;2.85;;;20.00;99.90;;;;;;4860935;29;20101;-83
2023/07/01 00:02:42;;;;;;;7.72;3.17;;;19.30;99.90;;;;;;4861470;29;20033;-82
2023/07/01 00:05:08;;;;;;;4.78;2.92;;;19.70;99.90;;;;;;4861207;29;20045;-83
2023/07/01 00:07:34;;;;;;;14.75;3.30;;;19.30;99.90;;;;;;4860979;29;20074;-82
2023/07/01 00:10:00;;;;;;;6.82;3.15;;;19.20;99.90;;;;;;4861438;29;20034;-82
2023/07/01 00:12:25;;;;;;;6.35;3.28;;;19.20;99.90;;;;;;4861418;29;20029;-82
2023/07/01 00:14:51;;;;;;;7.35;2.75;;;19.60;99.90;;;;;;4860478;29;20048;-83
2023/07/01 00:17:17;;;;;;;6.47;2.97;;;19.70;99.90;;;;;;4861187;29;20037;-83
2023/07/01 00:19:46;;;;;;;8.70;3.13;;;19.30;99.90;;;;;;4861190;29;20086;-83
2023/07/01 00:22:11;;;;;;;5.57;3.38;;;19.10;99.90;;;;;;4860690;29;20109;-83
2023/07/01 00:24:37;;;;;;;7.10;3.17;;;19.10;99.90;;;;;;4861037;29;20136;-82
2023/07/01 00:27:02;;;;;;;6.40;3.65;;;19.00;99.90;;;;;;4861064;29;20054;-82
2023/07/01 00:29:28;;;;;;;4.72;3.50;;;18.90;99.90;;;;;;4860524;29;20040;-82
2023/07/01 00:31:54;;;;;;;7.20;4.25;;;18.80;99.90;;;;;;4860842;29;20457;-82
2023/07/01 00:34:20;;;;;;;3.83;3.08;;;18.80;99.90;;;;;;4860934;29;20089;-82
2023/07/01 00:36:45;;;;;;;5.63;3.40;;;18.90;99.90;;;;;;4860024;29;20038;-82
2023/07/01 00:39:11;;;;;;;7.10;3.70;;;18.90;99.90;;;;;;4861178;29;20029;-83
2023/07/01 00:41:36;;;;;;;7.78;3.85;;;18.80;99.90;;;;;;4860664;29;20025;-83
2023/07/01 00:44:03;;;;;;;8.32;3.65;;;18.80;99.90;;;;;;4859982;29;20034;-82
2023/07/01 00:46:31;;;;;;;7.32;4.00;;;18.80;99.90;;;;;;4861053;29;20061;-83
2023/07/01 00:48:57;;;;;;;5.82;3.58;;;18.80;99.90;;;;;;4860512;29;20040;-83
2023/07/01 00:51:22;;;;;;;5.28;3.95;;;18.80;99.90;;;;;;4859830;29;20475;-82
2023/07/01 00:53:48;;;;;;;6.43;3.60;;;19.00;99.90;;;;;;4860431;29;20513;-83
2023/07/01 00:56:14;;;;;;;6.85;3.50;;;18.80;99.90;;;;;;4860273;29;20026;-82
2023/07/01 00:58:39;;;;;;;6.60;3.67;;;18.80;99.90;;;;;;4860676;29;20603;-82
2023/07/01 01:01:14;;;;;;;5.78;3.80;;;18.80;99.90;;;;;;4860938;29;20033;-82
2023/07/01 01:03:47;;;;;;;11.43;3.88;;;18.90;99.90;;;;;;4860215;29;20026;-82
2023/07/01 01:06:17;;;;;;;5.80;3.50;;;18.70;99.90;;;;;;4860672;29;20044;-82
2023/07/01 01:09:00;;;;;;;5.50;3.60;;;18.70;99.90;;;;;;4860474;29;20057;-82
2023/07/01 01:11:28;;;;;;;6.53;3.42;;;18.60;99.90;;;;;;4859723;29;20277;-82
2023/07/01 01:13:58;;;;;;;7.35;3.53;;;18.60;99.90;;;;;;4860406;29;20025;-82
2023/07/01 01:16:25;;;;;;;5.75;3.53;;;18.60;99.90;;;;;;4860150;29;20041;-82
2023/07/01 01:18:52;;;;;;;7.43;3.17;;;18.60;99.90;;;;;;4859529;29;20483;-82
2023/07/01 01:21:20;;;;;;;7.10;3.30;;;18.60;99.90;;;;;;4860459;29;20502;-81
2023/07/01 01:23:54;;;;;;;6.90;3.88;;;18.60;99.90;;;;;;4859970;29;20116;-82
2023/07/01 01:26:22;;;;;;;9.13;4.15;;;18.60;99.90;;;;;;4859583;29;20054;-82
2023/07/01 01:28:48;;;;;;;9.68;4.07;;;18.60;99.90;;;;;;4859920;29;20030;-82
2023/07/01 01:31:14;;;;;;;6.32;3.67;;;18.60;99.90;;;;;;4860007;29;20038;-82
2023/07/01 01:33:40;;;;;;;9.27;4.20;;;18.60;99.90;;;;;;4859602;29;20397;-82
2023/07/01 01:36:37;;;;;;;11.77;3.63;;;18.50;99.90;;;;;;4859585;29;20033;-82
2023/07/01 01:39:05;;;;;;;10.77;4.35;;;18.50;99.90;;;;;;4859226;29;20478;-82
2023/07/01 01:41:56;;;;;;;6.85;3.78;;;18.50;99.90;;;;;;4860110;29;20056;-83
2023/07/01 01:44:31;;;;;;;6.70;3.50;;;18.60;99.90;;;;;;4842898;29;20033;-83
2023/07/01 01:46:57;;;;;;;9.25;3.30;;;18.60;99.90;;;;;;4859323;29;20033;-83
2023/07/01 01:49:24;;;;;;;8.43;4.40;;;18.50;99.90;;;;;;4860128;29;20089;-83
2023/07/01 01:51:52;;;;;;;5.57;4.10;;;18.60;99.90;;;;;;4859941;29;20475;-83
2023/07/01 01:54:19;;;;;;;7.45;4.15;;;18.50;99.90;;;;;;4858923;29;20041;-82
2023/07/01 01:56:45;;;;;;;8.20;4.13;;;19.10;99.90;;;;;;4859585;29;20089;-82
2023/07/01 01:59:11;;;;;;;5.95;3.85;;;18.50;99.90;;;;;;4859872;29;20487;-82
2023/07/01 02:01:37;;;;;;;8.25;4.00;;;18.50;99.90;;;;;;4859545;29;20419;-82
2023/07/01 02:04:02;;;;;;;11.38;3.83;;;19.20;99.90;;;;;;4859822;29;20033;-83
2023/07/01 02:06:28;;;;;;;6.03;3.38;;;18.50;99.90;;;;;;4859403;29;20074;-82
2023/07/01 02:08:54;;;;;;;9.13;4.25;;;18.50;99.90;;;;;;4859704;29;20112;-83
2023/07/01 02:11:19;;;;;;;6.15;4.10;;;18.60;99.90;;;;;;4859934;29;20037;-83
2023/07/01 02:13:45;;;;;;;9.10;3.90;;;18.50;99.90;;;;;;4858958;29;20356;-83
2023/07/01 02:16:10;;;;;;;9.60;4.32;;;18.40;99.90;;;;;;4860063;29;20364;-81
2023/07/01 02:18:36;;;;;;;10.85;3.90;;;19.40;99.90;;;;;;4860047;29;20057;-82
2023/07/01 02:21:04;;;;;;;6.05;3.53;;;18.40;99.90;;;;;;4859079;29;20038;-84
2023/07/01 02:23:29;;;;;;;8.65;4.70;;;18.50;99.90;;;;;;4859924;29;20030;-81
2023/07/01 02:25:55;;;;;;;9.98;4.05;;;18.40;99.90;;;;;;4859218;29;20060;-83
2023/07/01 02:28:20;;;;;;;4.43;3.88;;;18.40;99.90;;;;;;4859062;29;20030;-83
2023/07/01 02:30:46;;;;;;;7.18;4.47;;;18.40;99.90;;;;;;4859772;29;20029;-83
2023/07/01 02:33:12;;;;;;;8.30;4.38;;;18.50;99.90;;;;;;4859600;29;20026;-83
2023/07/01 02:35:37;;;;;;;10.10;4.13;;;18.30;99.90;;;;;;4859216;29;20037;-83
2023/07/01 02:38:03;;;;;;;7.18;4.30;;;18.30;99.90;;;;;;4859285;29;20029;-83
2023/07/01 02:40:28;;;;;;;10.20;4.35;;;18.30;99.90;;;;;;4860364;29;20363;-82
2023/07/01 02:42:54;;;;;;;9.95;4.00;;;18.40;99.90;;;;;;4862463;29;20038;-82
2023/07/01 02:45:20;;;;;;;10.27;4.40;;;18.30;99.90;;;;;;4866118;29;20435;-82
2023/07/01 02:47:45;;;;;;;4.95;3.75;;;18.40;99.90;;;;;;4886417;29;20032;-82
2023/07/01 02:50:11;;;;;;;10.57;4.18;;;18.40;99.90;;;;;;4880137;29;20054;-82
2023/07/01 02:52:36;;;;;;;4.35;3.88;;;18.40;99.90;;;;;;4862690;29;20074;-82
2023/07/01 02:55:02;;;;;;;10.50;3.80;;;18.70;99.90;;;;;;4862818;29;20482;-82
2023/07/01 02:57:28;;;;;;;6.55;3.67;;;18.40;99.90;;;;;;4862212;29;20493;-82
2023/07/01 02:59:56;;;;;;;4.30;3.35;;;18.40;99.90;;;;;;4862642;29;20034;-82
2023/07/01 03:02:21;;;;;;;3.88;3.33;;;18.50;99.90;;;;;;4863157;29;20022;-82
2023/07/01 03:04:47;;;;;;;8.23;3.70;;;19.20;99.90;;;;;;4861627;29;20081;-82
2023/07/01 03:07:12;;;;;;;7.85;3.80;;;18.40;99.90;;;;;;4862701;29;20037;-82
2023/07/01 03:09:38;;;;;;;6.47;4.10;;;18.40;99.90;;;;;;4862792;29;20057;-81
2023/07/01 03:12:04;;;;;;;9.30;4.40;;;18.50;99.90;;;;;;4861750;29;20308;-82
2023/07/01 03:14:30;;;;;;;8.73;3.65;;;18.50;99.90;;;;;;4862707;29;20394;-82
2023/07/01 03:16:55;;;;;;;7.63;4.28;;;18.50;99.90;;;;;;4861959;29;20471;-82
2023/07/01 03:19:23;;;;;;;7.20;3.97;;;18.50;99.90;;;;;;4862799;29;20025;-82
2023/07/01 03:21:48;;;;;;;5.47;3.88;;;18.40;99.90;;;;;;4863086;29;20037;-82
2023/07/01 03:24:14;;;;;;;6.30;4.55;;;18.50;99.90;;;;;;4861645;29;20033;-83
2023/07/01 03:26:39;;;;;;;10.63;5.18;;;18.40;99.90;;;;;;4862198;29;20040;-82
2023/07/01 03:29:05;;;;;;;8.30;5.15;;;18.70;99.90;;;;;;4862151;29;20089;-82
2023/07/01 03:31:32;;;;;;;7.60;4.53;;;18.40;99.90;;;;;;4861718;29;20029;-82
2023/07/01 03:33:58;;;;;;;6.00;4.32;;;18.40;99.90;;;;;;4861963;29;20526;-82
2023/07/01 03:36:24;;;;;;;4.95;4.45;;;19.10;99.90;;;;;;4862311;29;20033;-82
2023/07/01 03:38:49;;;;;;;7.25;4.53;;;18.30;99.90;;;;;;4860976;29;20025;-82
2023/07/01 03:41:15;;;;;;;7.00;4.63;;;18.40;99.90;;;;;;4861869;29;20040;-83
2023/07/01 03:43:40;;;;;;;9.75;5.07;;;18.30;99.90;;;;;;4862089;29;20025;-83
2023/07/01 03:46:06;;;;;;;6.13;5.60;;;18.30;99.90;;;;;;4861552;29;20033;-82
2023/07/01 03:48:31;;;;;;;9.48;4.95;;;18.30;99.90;;;;;;4861996;29;20550;-82
2023/07/01 03:50:57;;;;;;;6.00;5.15;;;18.30;99.90;;;;;;4861856;29;20045;-82
2023/07/01 03:53:23;;;;;;;9.88;5.22;;;18.30;99.90;;;;;;4860806;29;20372;-83
2023/07/01 03:55:48;;;;;;;5.40;4.97;;;18.30;99.90;;;;;;4861990;29;20085;-82
2023/07/01 03:58:21;;;;;;;7.32;5.70;;;18.20;99.90;;;;;;4861917;29;20467;-83
2023/07/01 04:00:56;;;;;;;7.10;5.35;;;18.30;99.90;;;;;;4861129;29;20116;-82
2023/07/01 04:03:25;;;;;;;11.38;5.72;;;18.20;99.90;;;;;;4862046;29;20101;-82
2023/07/01 04:05:51;;;;;;;7.40;5.75;;;18.30;99.90;;;;;;4861595;29;20041;-82
2023/07/01 04:08:17;;;;;;;5.78;5.18;;;18.30;99.90;;;;;;4860919;29;20029;-82
2023/07/01 04:10:42;;;;;;;9.48;4.82;;;18.30;99.90;;;;;;4861651;29;20082;-82
2023/07/01 04:13:08;;;;;;;6.10;5.50;;;18.20;99.90;;;;;;4860874;29;20026;-82
2023/07/01 04:15:34;;;;;;;6.45;5.85;;;18.30;99.90;;;;;;4861657;29;20060;-82
2023/07/01 04:17:59;;;;;;;6.85;5.75;;;18.80;99.90;;;;;;4861400;29;20021;-82
2023/07/01 04:20:25;;;;;;;6.43;5.80;;;18.40;99.90;;;;;;4860655;29;20068;-82
2023/07/01 04:22:50;;;;;;;6.47;5.95;;;18.30;99.90;;;;;;4861268;29;20028;-82
2023/07/01 04:25:16;;;;;;;8.75;6.07;;;18.50;99.90;;;;;;4861294;29;20049;-82
2023/07/01 04:27:45;;;;;;;6.97;6.38;;;18.20;99.90;;;;;;4860800;29;20093;-81
2023/07/01 04:30:13;;;;;;;7.15;6.15;;;18.20;99.90;;;;;;4861429;29;20081;-82
2023/07/01 04:32:38;;;;;;;6.75;6.07;;;18.10;99.90;;;;;;4873320;29;20050;-81
2023/07/01 04:35:04;;;;;;;7.30;6.57;;;18.10;99.90;;;;;;4882933;29;20121;-82
2023/07/01 04:37:30;;;;;;;6.63;6.07;;;18.10;99.90;;;;;;4870391;29;20029;-82
2023/07/01 04:39:55;;;;;;;6.63;6.03;;;18.10;99.90;;;;;;4861215;29;20554;-82
2023/07/01 04:42:21;;;;;;;6.13;5.63;;;18.10;99.90;;;;;;4860401;29;20456;-82
2023/07/01 04:44:53;;;;;;;5.85;5.32;;;18.60;99.90;;;;;;4861047;29;20029;-82
2023/07/01 04:47:21;;;;;;;9.18;5.40;;;18.10;99.90;;;;;;4860891;29;20025;-82
2023/07/01 04:49:47;;;;;;;6.57;5.93;;;18.10;99.90;;;;;;4860135;29;20535;-82
2023/07/01 04:52:14;;;;;;;7.70;6.90;;;18.10;99.90;;;;;;4861080;29;20022;-82
2023/07/01 04:54:40;;;;;;;6.80;6.20;;;18.10;99.90;;;;;;4861177;29;20037;-82
2023/07/01 04:57:05;;;;;;;6.72;6.07;;;18.10;99.90;;;;;;4859835;29;20047;-82
2023/07/01 04:59:31;;;;;;;7.13;6.63;;;18.10;99.90;;;;;;4861027;29;20439;-82
2023/07/01 05:01:57;;;;;;;7.97;7.22;;;18.10;99.90;;;;;;4860222;29;20521;-82
2023/07/01 05:04:22;;;;;;;7.15;6.63;;;18.10;99.90;;;;;;4859652;29;20029;-82
2023/07/01 05:06:48;;;;;;;6.97;6.32;;;18.10;99.90;;;;;;4860335;29;20041;-81
2023/07/01 05:09:13;;;;;;;10.70;6.47;;;18.40;99.90;;;;;;4860662;29;20030;-82
2023/07/01 05:11:39;;;;;;;7.30;6.70;;;18.10;99.90;;;;;;4859764;29;20034;-82
2023/07/01 05:14:04;;;;;;;6.85;6.32;;;18.30;99.90;;;;;;4860308;29;20041;-82
2023/07/01 05:16:31;;;;;;;7.10;6.50;;;18.10;99.90;;;;;;4859909;29;20033;-82
2023/07/01 05:18:58;;;;;;;7.25;6.75;;;18.10;99.90;;;;;;4860599;29;20029;-82
2023/07/01 05:21:24;;;;;;;7.20;6.63;;;18.20;99.90;;;;;;4860397;29;20558;-83
2023/07/01 05:23:50;;;;;;;6.70;6.10;;;18.10;99.90;;;;;;4859611;29;20121;-82
2023/07/01 05:26:15;;;;;;;6.00;5.50;;;18.10;99.90;;;;;;4860228;29;20133;-82
2023/07/01 05:28:41;;;;;;;6.22;5.68;;;18.10;99.90;;;;;;4860688;29;20057;-82
2023/07/01 05:31:07;;;;;;;6.45;5.85;;;18.10;99.90;;;;;;4859713;29;20025;-82
2023/07/01 05:33:32;;;;;;;5.22;4.50;;;18.10;99.90;;;;;;4860208;29;20170;-82
2023/07/01 05:35:59;;;;;;;5.10;4.80;;;18.10;99.90;;;;;;4860168;29;20049;-82
2023/07/01 05:38:24;;;;;;;4.75;4.43;;;18.10;99.90;;;;;;4859969;29;20052;-82
2023/07/01 05:40:50;;;;;;;5.43;4.32;;;18.20;99.90;;;;;;4859668;29;20585;-82
2023/07/01 05:43:16;;;;;;;4.32;4.13;;;18.20;99.90;;;;;;4860034;29;20513;-82
2023/07/01 05:45:41;;;;;;;4.70;4.30;;;18.20;99.90;;;;;;4859686;29;20963;-82
2023/07/01 05:48:07;;;;;;;7.30;4.93;;;18.20;99.90;;;;;;4860056;29;20045;-82
2023/07/01 05:50:33;;;;;;;5.07;4.78;;;18.20;99.90;;;;;;4860265;29;20029;-82
2023/07/01 05:52:59;;;;;;;6.00;5.28;;;18.20;99.90;;;;;;4859669;29;20035;-82
2023/07/01 05:55:24;;;;;;;6.38;5.78;;;18.20;99.90;;;;;;4860486;29;20025;-82
2023/07/01 05:57:50;;;;;;;5.65;5.25;;;18.20;99.90;;;;;;4860114;29;20025;-82
2023/07/01 06:00:16;;;;;;;5.40;4.90;;;18.20;99.90;;;;;;4859542;29;20033;-82
2023/07/01 06:02:42;;;;;;;5.97;5.57;;;18.20;99.90;;;;;;4860459;29;20030;-82
2023/07/01 06:05:08;;;;;;;5.47;5.18;;;18.20;99.90;;;;;;4860044;29;20041;-82
2023/07/01 06:07:34;;;;;;;5.78;5.38;;;18.80;99.90;;;;;;4859592;29;20522;-82
2023/07/01 06:10:00;;;;;;;5.95;5.60;;;18.20;99.90;;;;;;4860088;29;20116;-82
2023/07/01 06:12:26;;;;;;;6.07;5.68;;;18.20;99.90;;;;;;4860285;29;20033;-82
2023/07/01 06:14:52;;;;;;;6.60;6.20;;;18.10;99.90;;;;;;4858764;29;20026;-81
2023/07/01 06:17:17;;;;;;;5.80;5.40;;;19.20;99.90;;;;;;4863364;29;20606;-82
2023/07/01 06:19:43;;;;;;;5.80;5.40;;;18.20;99.90;;;;;;4881416;29;20050;-82
2023/07/01 06:22:08;;;;;;;6.15;5.57;;;18.50;99.90;;;;;;4884634;29;20056;-82
2023/07/01 06:24:34;;;;;;;6.78;6.28;;;18.30;99.90;;;;;;4868424;29;20070;-82
2023/07/01 06:26:59;;;;;;;6.80;6.18;;;18.30;99.90;;;;;;4862750;29;20052;-82
2023/07/01 06:29:25;;;;;;;6.20;5.47;;;18.90;99.90;;;;;;4863395;29;20516;-82
2023/07/01 06:31:50;;;;;;;8.13;5.53;;;18.20;99.90;;;;;;4862917;29;20072;-82
2023/07/01 06:34:17;;;;;;;6.80;6.20;;;18.30;99.90;;;;;;4862754;29;20032;-82
2023/07/01 06:36:43;;;;;;;6.40;6.00;;;18.80;99.90;;;;;;4863499;29;20029;-82
2023/07/01 06:39:09;;;;;;;6.65;6.20;;;18.40;99.90;;;;;;4863374;29;20033;-82
2023/07/01 06:41:34;;;;;;;7.07;6.07;;;18.30;99.90;;;;;;4862257;29;20478;-82
2023/07/01 06:44:00;;;;;;;7.53;6.97;;;18.50;99.90;;;;;;4862924;29;20030;-82
2023/07/01 06:46:26;;;;;;;7.03;6.50;;;18.60;99.90;;;;;;4863136;29;20042;-82
2023/07/01 06:48:52;;;;;;;7.38;6.47;;;18.30;99.90;;;;;;4862384;29;20053;-82
2023/07/01 06:51:18;;;;;;;6.90;6.28;;;18.40;99.90;;;;;;4862883;29;20550;-82
2023/07/01 06:53:43;;;;;;;7.10;6.60;;;18.30;99.90;;;;;;4863154;29;20032;-82
2023/07/01 06:56:09;;;;;;;6.93;6.43;;;18.30;99.90;;;;;;4862256;29;20070;-82
2023/07/01 06:58:36;;;;;;;7.50;6.90;;;18.30;99.90;;;;;;4863117;29;20030;-82
2023/07/01 07:01:02;;;;;;;6.47;6.07;;;18.80;99.90;;;;;;4862740;29;20029;-82
2023/07/01 07:03:28;;;;;;;6.75;6.35;;;18.30;99.90;;;;;;4862533;29;20139;-83
2023/07/01 07:05:54;;;;;;;6.28;5.88;;;18.40;99.90;;;;;;4862725;29;20038;-82
2023/07/01 07:08:23;;;;;;;6.70;5.93;;;18.90;99.90;;;;;;4862954;29;20033;-82
2023/07/01 07:10:49;;;;;;;7.10;6.60;;;19.10;99.90;;;;;;4861963;29;20034;-82
2023/07/01 07:13:15;;;;;;;7.00;6.47;;;18.30;99.90;;;;;;4862544;29;20121;-82
2023/07/01 07:15:41;;;;;;;6.57;6.18;;;18.30;99.90;;;;;;4862336;29;20091;-82
2023/07/01 07:18:09;;;;;;;6.95;6.45;;;18.50;99.90;;;;;;4861700;29;20025;-82
2023/07/01 07:20:36;;;;;;;6.88;6.28;;;18.40;99.90;;;;;;4862791;29;20030;-82
2023/07/01 07:23:04;;;;;;;6.18;5.78;;;18.60;99.90;;;;;;4861432;29;20081;-82
2023/07/01 07:25:29;;;;;;;6.45;5.95;;;18.30;99.90;;;;;;4862302;29;20061;-82
2023/07/01 07:27:55;;;;;;;6.03;5.63;;;18.40;99.90;;;;;;4861068;29;20025;-83
2023/07/01 07:30:20;;;;;;;6.00;5.60;;;18.40;99.90;;;;;;4861976;29;20033;-82
2023/07/01 07:32:46;;;;;;;6.00;5.60;;;18.40;99.90;;;;;;4862309;29;20033;-82
2023/07/01 07:35:12;;;;;;;5.82;5.43;;;18.40;99.90;;;;;;4862452;29;20065;-82
2023/07/01 07:37:37;;;;;;;5.53;5.13;;;18.40;99.90;;;;;;4861547;29;20062;-82
2023/07/01 07:40:05;;;;;;;4.95;4.65;;;18.40;99.90;;;;;;4862209;29;20030;-82
2023/07/01 07:42:31;;;;;;;5.28;4.88;;;18.30;99.90;;;;;;4862349;29;20033;-83
2023/07/01 07:44:57;;;;;;;5.00;4.70;;;18.40;99.90;;;;;;4860934;29;20046;-82
2023/07/01 07:47:23;;;;;;;4.15;3.80;;;18.40;99.90;;;;;;4862130;29;20470;-82
2023/07/01 07:49:48;;;;;;;3.80;3.50;;;18.40;99.90;;;;;;4862169;29;20029;-82
2023/07/01 07:52:14;;;;;;;3.40;3.10;;;18.40;99.90;;;;;;4861409;29;20474;-82
2023/07/01 07:54:44;;;;;;;3.75;3.50;;;18.50;99.90;;;;;;4862069;29;20033;-82
2023/07/01 07:57:10;;;;;;;2.55;2.35;;;18.50;99.90;;;;;;4862268;29;20083;-82
2023/07/01 07:59:36;;;;;;;2.88;2.67;;;18.90;99.90;;;;;;4861259;29;20508;-82
2023/07/01 08:02:02;;;;;;;3.58;3.28;;;18.50;99.90;;;;;;4861620;29;20029;-82
2023/07/01 08:04:27;;;;;;;3.65;2.85;;;18.50;99.90;;;;;;4847498;29;20392;-82
2023/07/01 08:06:53;;;;;;;3.15;2.95;;;18.50;99.90;;;;;;4884091;29;20101;-82
2023/07/01 08:09:19;;;;;;;3.00;2.80;;;18.70;99.90;;;;;;4877186;29;20028;-82
2023/07/01 08:11:45;;;;;;;3.25;3.05;;;18.60;99.90;;;;;;4861745;29;20490;-83
2023/07/01 08:14:11;;;;;;;2.58;2.40;;;18.60;99.90;;;;;;4861213;29;20036;-83
2023/07/01 08:16:37;;;;;;;3.15;2.90;;;18.80;99.90;;;;;;4861982;29;20026;-82
2023/07/01 08:19:03;;;;;;;2.78;2.58;;;18.70;99.90;;;;;;4861238;29;20030;-82
2023/07/01 08:21:29;;;;;;;3.00;2.80;;;18.60;99.90;;;;;;4860951;29;20025;-82
2023/07/01 08:23:54;;;;;;;3.00;2.80;;;18.60;99.90;;;;;;4861079;29;20029;-82
2023/07/01 08:26:20;;;;;;;3.20;3.00;;;18.70;99.90;;;;;;4860758;29;20061;-82
2023/07/01 08:28:46;;;;;;;2.80;2.60;;;18.70;99.90;;;;;;4860836;29;20035;-82
2023/07/01 08:31:11;;;;;;;3.88;3.20;;;18.70;99.90;;;;;;4844840;29;20563;-82
2023/07/01 08:33:37;;;;;;;3.58;3.38;;;18.70;99.90;;;;;;4860957;29;20029;-83
2023/07/01 08:36:03;;;;;;;3.42;3.22;;;18.70;99.90;;;;;;4861283;29;20390;-82
2023/07/01 08:38:30;;;;;;;4.50;3.42;;;18.70;99.90;;;;;;4861307;29;20032;-82
2023/07/01 08:41:01;;;;;;;3.90;3.70;;;19.00;99.90;;;;;;4860280;29;20048;-82
2023/07/01 08:43:26;;;;;;;3.50;3.20;;;18.90;99.90;;;;;;4861152;29;20037;-82
2023/07/01 08:45:55;;;;;;;3.83;3.55;;;19.00;99.90;;;;;;4860886;29;20073;-82
2023/07/01 08:48:22;;;;;;;4.72;4.32;;;18.80;99.90;;;;;;4860579;29;20022;-82
2023/07/01 08:50:59;;;;;;;4.15;3.70;;;18.70;99.90;;;;;;4860846;29;20097;-82
2023/07/01 08:53:26;;;;;;;3.67;3.47;;;18.80;99.90;;;;;;4861107;29;20081;-82
2023/07/01 08:55:52;;;;;;;3.70;3.50;;;18.80;99.90;;;;;;4860308;29;20033;-82
2023/07/01 08:58:19;;;;;;;4.05;3.80;;;18.80;99.90;;;;;;4861032;29;20026;-82
2023/07/01 09:00:45;;;;;;;3.45;3.25;;;19.50;99.90;;;;;;4860880;29;20499;-83
2023/07/01 09:03:12;;;;;;;3.80;3.58;;;18.80;99.90;;;;;;4860515;29;20025;-82
2023/07/01 09:05:37;;;;;;;4.03;3.72;;;18.90;99.90;;;;;;4860679;29;20034;-83
2023/07/01 09:08:03;;;;;;;4.25;3.92;;;19.10;99.90;;;;;;4860823;29;20379;-83
2023/07/01 09:10:28;;;;;;;3.85;3.30;;;18.80;99.90;;;;;;4860118;29;20090;-83
2023/07/01 09:12:54;;;;;;;4.00;3.58;;;19.20;99.90;;;;;;4860577;29;20081;-83
2023/07/01 09:15:20;;;;;;;2.95;2.83;;;18.90;99.90;;;;;;4860918;29;20026;-83
2023/07/01 09:17:45;;;;;;;2.88;2.67;;;19.60;99.90;;;;;;4859832;29;20221;-82
2023/07/01 09:20:13;;;;;;;2.30;2.20;;;18.90;99.90;;;;;;4860762;29;20065;-83
2023/07/01 09:22:41;;;;;;;2.65;2.45;;;18.70;99.90;;;;;;4860125;29;20058;-82
2023/07/01 09:25:07;;;;;;;2.33;2.15;;;18.90;99.90;;;;;;4860093;29;20057;-83
2023/07/01 09:27:47;;;;;;;1.80;1.70;;;18.90;99.90;;;;;;4860866;29;20026;-82
2023/07/01 09:30:23;;;;;;;1.92;1.83;;;18.90;99.90;;;;;;4860330;29;20039;-82
2023/07/01 09:32:48;;;;;;;3.15;1.98;;;18.90;99.90;;;;;;4860443;29;20053;-82
2023/07/01 09:35:14;;;;;;;2.17;1.98;;;18.90;99.90;;;;;;4860514;29;20076;-83
2023/07/01 09:37:40;;;;;;;1.90;1.80;;;18.90;99.90;;;;;;4859805;29;20034;-82
2023/07/01 09:40:20;;;;;;;1.63;1.52;;;18.90;99.90;;;;;;4860886;29;20064;-82
2023/07/01 09:42:49;;;;;;;;;;;18.90;99.90;;;;;;4860612;29;20487;-82
2023/07/01 09:45:15;;;;;;;1.80;1.70;;;18.90;99.90;;;;;;4859757;29;19923;-82
2023/07/01 09:47:40;;;;;;;2.28;1.90;;;18.90;99.90;;;;;;4860627;29;20025;-82
2023/07/01 09:50:07;;;;;;;6.07;5.47;;;18.90;99.90;;;;;;4859989;29;20029;-82
2023/07/01 09:52:36;;;;;;;2.90;1.90;;;18.90;99.90;;;;;;4878483;29;20014;-82
2023/07/01 09:55:02;;;;;;;6.93;2.30;;;18.90;99.90;;;;;;4878042;29;20089;-82
2023/07/01 09:57:29;;;;;;;2.58;2.38;;;18.90;99.90;;;;;;4863266;29;20033;-82
2023/07/01 09:59:56;;;;;;;3.42;2.35;;;19.30;99.90;;;;;;4859535;29;20040;-83
2023/07/01 10:02:26;;;;;;;3.78;2.63;;;18.90;99.90;;;;;;4860382;29;20038;-82
2023/07/01 10:04:53;;;;;;;3.80;3.42;;;19.30;99.90;;;;;;4859308;29;20427;-82
2023/07/01 10:07:19;;;;;;;4.20;3.25;;;18.90;99.90;;;;;;4860288;29;20033;-82
2023/07/01 10:09:46;;;;;;;3.95;3.50;;;19.00;99.90;;;;;;4860646;29;20030;-83
2023/07/01 10:12:15;;;;;;;4.57;3.83;;;19.00;99.90;;;;;;4859678;29;20029;-83
2023/07/01 10:14:42;;;;;;;4.75;4.15;;;19.00;99.90;;;;;;4859880;29;20066;-83
2023/07/01 10:17:09;;;;;;;8.45;5.30;;;19.10;99.90;;;;;;4859756;29;20068;-83
2023/07/01 10:19:35;;;;;;;7.75;4.80;;;19.10;99.90;;;;;;4859497;29;20037;-83
2023/07/01 10:22:20;;;;;;;5.90;5.25;;;19.60;99.90;;;;;;4859996;29;20034;-82
2023/07/01 10:24:53;;;;;;;7.90;5.75;;;19.10;99.90;;;;;;4859722;29;20053;-83
2023/07/01 10:27:41;;;;;;;7.88;5.90;;;19.00;99.90;;;;;;4859477;29;20124;-82
2023/07/01 10:30:12;;;;;;;7.47;5.55;;;19.10;99.90;;;;;;4859796;29;20057;-83
2023/07/01 10:32:39;;;;;;;7.50;5.35;;;19.00;99.90;;;;;;4859975;29;20040;-82
2023/07/01 10:35:04;;;;;;;6.93;5.80;;;19.10;99.90;;;;;;4858908;29;20120;-83
2023/07/01 10:37:35;;;;;;;6.38;5.88;;;19.10;99.90;;;;;;4860804;29;20072;-83
2023/07/01 10:40:21;;;;;;;6.60;5.85;;;19.00;99.90;;;;;;4859040;29;20026;-82
2023/07/01 10:42:46;;;;;;;5.93;5.40;;;19.10;99.90;;;;;;4859810;29;20391;-81
2023/07/01 10:45:12;;;;;;;8.40;5.63;;;19.10;99.90;;;;;;4859794;29;20041;-82
2023/07/01 10:47:42;;;;;;;5.60;5.10;;;19.00;99.90;;;;;;4859372;29;20034;-82
2023/07/01 10:50:10;;;;;;;4.85;4.43;;;19.50;99.90;;;;;;4859757;29;20038;-82
2023/07/01 10:52:57;;;;;;;4.95;4.50;;;18.90;99.90;;;;;;4860179;29;20072;-82
2023/07/01 10:55:36;;;;;;;5.85;5.45;;;18.90;99.90;;;;;;4859355;29;20386;-82
2023/07/01 10:58:23;;;;;;;6.20;5.60;;;18.90;99.90;;;;;;4859624;29;20119;-82
2023/07/01 11:00:58;;;;;;;6.15;4.80;;;18.90;99.90;;;;;;4859762;29;20029;-82
2023/07/01 11:03:33;;;;;;;8.13;6.95;;;18.90;99.90;;;;;;4861453;29;20022;-83
2023/07/01 11:06:19;;;;;;;8.57;7.63;;;18.90;99.90;;;;;;4862890;29;20053;-83
2023/07/01 11:08:52;;;;;;;10.27;7.15;;;19.20;99.90;;;;;;4861819;29;20037;-83
2023/07/01 11:11:25;;;;;;;8.60;7.80;;;18.90;99.90;;;;;;4862884;29;20104;-83
2023/07/01 11:14:08;;;;;;;8.57;7.60;;;19.00;99.90;;;;;;4862940;29;20049;-83
2023/07/01 11:16:34;;;;;;;13.05;8.00;;;18.90;99.90;;;;;;4862219;29;20041;-83
2023/07/01 11:19:03;;;;;;;8.05;7.20;;;19.00;99.90;;;;;;4862616;29;20030;-83
2023/07/01 11:21:30;;;;;;;9.10;8.02;;;19.00;99.90;;;;;;4862752;29;20037;-82
2023/07/01 11:24:05;;;;;;;9.30;7.93;;;19.00;99.90;;;;;;4861870;29;20049;-83
2023/07/01 11:26:35;;;;;;;9.32;7.80;;;19.00;99.90;;;;;;4862648;29;20046;-82
2023/07/01 11:29:07;;;;;;;14.88;8.43;;;19.00;99.90;;;;;;4862541;29;20097;-82
2023/07/01 11:31:34;;;;;;;9.65;7.88;;;19.00;99.90;;;;;;4862876;29;20104;-82
2023/07/01 11:34:01;;;;;;;9.73;8.52;;;19.00;99.90;;;;;;4862558;29;20078;-82
2023/07/01 11:36:34;;;;;;;12.73;7.88;;;19.10;99.90;;;;;;4862159;29;20037;-82
2023/07/01 11:39:20;;;;;;;10.95;7.75;;;19.00;99.90;;;;;;4882097;29;20037;-83
2023/07/01 11:41:58;;;;;;;10.95;7.93;;;19.00;99.90;;;;;;4874520;29;20030;-83
2023/07/01 11:44:25;;;;;;;9.77;6.88;;;19.00;99.90;;;;;;4861782;29;20104;-83
2023/07/01 11:46:52;;;;;;;10.07;8.02;;;19.00;99.90;;;;;;4862022;29;20038;-82
2023/07/01 11:49:21;;;;;;;9.88;7.80;;;19.00;99.90;;;;;;4862449;29;20049;-83
2023/07/01 11:52:00;;;;;;;8.00;7.28;;;18.90;99.90;;;;;;4861719;29;20021;-82
2023/07/01 11:54:48;;;;;;;10.82;7.43;;;18.90;99.90;;;;;;4862249;29;20029;-83
2023/07/01 11:57:17;;;;;;;8.60;7.78;;;19.00;99.90;;;;;;4862148;29;20034;-82
2023/07/01 11:59:47;;;;;;;10.03;8.43;;;19.00;99.90;;;;;;4862473;29;20030;-83
2023/07/01 12:02:13;;;;;;;15.00;8.40;;;19.10;99.90;;;;;;4861819;29;20518;-83
2023/07/01 12:04:40;;;;;;;10.13;9.13;;;19.10;99.90;;;;;;4861489;29;20035;-82
2023/07/01 12:07:07;;;;;;;10.30;9.32;;;19.20;99.90;;;;;;4861769;29;20498;-82
2023/07/01 12:09:34;;;;;;;10.65;8.45;;;19.20;99.90;;;;;;4861989;29;20036;-83
2023/07/01 12:11:59;;;;;;;11.30;9.30;;;19.20;99.90;;;;;;4861022;29;20029;-83
2023/07/01 12:14:25;;;;;;;14.07;9.25;;;19.30;99.90;;;;;;4861458;29;20028;-83
2023/07/01 12:16:52;;;;;;;9.45;7.88;;;19.50;99.90;;;;;;4861746;29;20085;-83
2023/07/01 12:19:23;;;;;;;9.73;7.78;;;19.20;99.90;;;;;;4861126;29;20029;-83
2023/07/01 12:21:51;;;;;;;7.90;6.95;;;19.20;99.90;;;;;;4861294;29;20406;-83
2023/07/01 12:24:20;;;;;;;8.30;7.35;;;19.20;99.90;;;;;;4862086;29;20463;-83
2023/07/01 12:26:50;;;;;;;14.38;8.60;;;19.30;99.90;;;;;;4861315;29;20046;-83
2023/07/01 12:29:17;;;;;;;12.07;7.72;;;19.20;99.90;;;;;;4861869;29;20033;-82
2023/07/01 12:31:43;;;;;;;11.43;8.02;;;19.40;99.90;;;;;;4861520;29;20033;-82
2023/07/01 12:34:09;;;;;;;12.70;9.00;;;19.30;99.90;;;;;;4860706;29;20467;-82
2023/07/01 12:36:35;;;;;;;10.82;6.75;;;19.30;99.90;;;;;;4861443;29;20044;-82
2023/07/01 12:39:02;;;;;;;7.28;6.43;;;19.60;99.90;;;;;;4861277;29;20555;-82
2023/07/01 12:41:30;;;;;;;8.15;6.20;;;20.20;99.90;;;;;;4860809;29;20037;-82
2023/07/01 12:43:57;;;;;;;4.47;3.78;;;19.40;99.90;;;;;;4861668;29;20109;-82
2023/07/01 12:46:22;;;;;;;4.53;3.55;;;19.40;99.90;;;;;;4861387;29;20046;-82